Time;durP1;ratioP1;P1;durP2;ratioP2;P2;SDS_P1;SDS_P2;PMS_P1;PMS_P2;Temp;Humidity;BMP_temperature;BMP_pressure;BME280_temperature;BME280_humidity;BME280_pressure;Samples;Min_cycle;Max_cycle;Signal;HPM_P1;HPM_P2
2022/10/05 00:00:16;;;;;;;17.00;8.15;;;;;;;14.15;100.00;101668.91;5040440;28;20067;-68
2022/10/05 00:02:42;;;;;;;;;;;;;;;14.15;100.00;101661.72;5040088;28;20060;-68
2022/10/05 00:05:20;;;;;;;17.75;8.80;;;;;;;14.18;100.00;101660.66;5058580;28;19978;-69
2022/10/05 00:07:46;;;;;;;16.27;8.13;;;;;;;14.14;100.00;101649.28;5055516;28;20084;-68
2022/10/05 00:10:16;;;;;;;16.85;8.27;;;;;;;14.15;100.00;101647.44;5049055;28;20631;-68
2022/10/05 00:12:44;;;;;;;17.20;8.52;;;;;;;14.12;100.00;101651.19;5051470;28;20074;-68
2022/10/05 00:15:12;;;;;;;16.17;7.72;;;;;;;14.16;100.00;101654.56;5054743;28;20447;-67
2022/10/05 00:17:37;;;;;;;13.82;8.25;;;;;;;14.12;100.00;101650.34;5039828;28;20055;-68
2022/10/05 00:20:21;;;;;;;17.05;8.73;;;;;;;14.19;100.00;101647.16;5051461;28;20037;-69
2022/10/05 00:22:47;;;;;;;13.80;7.88;;;;;;;14.14;100.00;101646.59;5057901;28;20396;-69
2022/10/05 00:25:19;;;;;;;21.90;9.70;;;;;;;14.18;100.00;101647.25;5057600;28;20041;-68
2022/10/05 00:27:53;;;;;;;14.65;9.05;;;;;;;14.18;100.00;101645.44;5058011;28;20048;-68
2022/10/05 00:30:21;;;;;;;14.77;8.30;;;;;;;14.16;100.00;101639.31;5032146;28;20500;-67
2022/10/05 00:32:48;;;;;;;14.93;9.20;;;;;;;14.12;100.00;101640.47;5058052;28;20136;-68
2022/10/05 00:35:15;;;;;;;13.20;8.68;;;;;;;14.14;100.00;101632.31;5057345;28;20044;-67
2022/10/05 00:37:40;;;;;;;16.00;9.10;;;;;;;14.12;100.00;101639.63;5057216;28;20032;-68
2022/10/05 00:40:35;;;;;;;15.00;7.93;;;;;;;14.17;100.00;101646.41;5057968;28;20040;-68
2022/10/05 00:43:20;;;;;;;15.63;8.80;;;;;;;14.14;100.00;101641.22;5046264;28;20044;-66
2022/10/05 00:46:10;;;;;;;19.42;8.80;;;;;;;14.18;100.00;101648.13;5049874;28;20178;-68
2022/10/05 00:49:15;;;;;;;15.88;8.32;;;;;;;14.22;100.00;101633.53;5055821;28;20040;-67
2022/10/05 00:51:52;;;;;;;18.48;9.23;;;;;;;14.14;100.00;101643.91;5055202;28;20040;-67
2022/10/05 00:54:41;;;;;;;16.48;8.95;;;;;;;14.08;100.00;101638.94;5045938;28;20091;-69
2022/10/05 00:57:25;;;;;;;18.85;8.65;;;;;;;14.18;100.00;101641.88;5038346;28;20040;-68
2022/10/05 01:00:11;;;;;;;17.55;9.45;;;;;;;14.19;100.00;101633.72;5041510;28;20044;-67
2022/10/05 01:02:49;;;;;;;14.23;8.80;;;;;;;14.23;100.00;101634.41;5058310;28;20037;-68
2022/10/05 01:05:31;;;;;;;21.30;9.27;;;;;;;14.18;100.00;101639.22;5040270;28;20056;-67
2022/10/05 01:08:18;;;;;;;15.95;9.60;;;;;;;14.19;100.00;101639.09;5058651;28;20051;-68
2022/10/05 01:10:56;;;;;;;16.98;9.88;;;;;;;14.16;100.00;101625.91;5038992;28;20083;-68
2022/10/05 01:13:45;;;;;;;18.88;10.43;;;;;;;14.14;100.00;101627.81;5050428;28;20090;-67
2022/10/05 01:16:19;;;;;;;20.13;10.35;;;;;;;14.16;100.00;101617.00;5041108;28;20125;-68
2022/10/05 01:19:29;;;;;;;22.27;12.25;;;;;;;14.15;100.00;101618.78;5036739;28;20062;-67
2022/10/05 01:22:12;;;;;;;15.70;10.20;;;;;;;14.15;100.00;101620.63;5054727;28;20044;-67
2022/10/05 01:24:48;;;;;;;20.95;10.77;;;;;;;14.12;100.00;101620.84;5055417;28;20628;-67
2022/10/05 01:27:41;;;;;;;22.13;9.90;;;;;;;14.12;100.00;101616.34;5059052;28;20453;-67
2022/10/05 01:30:12;;;;;;;20.55;10.82;;;;;;;14.14;100.00;101614.41;5042342;28;20035;-68
2022/10/05 01:32:47;;;;;;;16.25;9.52;;;;;;;14.11;100.00;101617.31;5036299;28;20049;-68
2022/10/05 01:35:37;;;;;;;22.73;11.10;;;;;;;14.09;100.00;101607.63;5053107;28;20041;-68
2022/10/05 01:38:27;;;;;;;20.88;11.00;;;;;;;14.10;100.00;101609.34;5054610;28;20035;-68
2022/10/05 01:41:01;;;;;;;15.70;10.40;;;;;;;14.11;100.00;101598.53;5037268;28;20047;-69
2022/10/05 01:43:38;;;;;;;20.40;10.65;;;;;;;14.00;100.00;101599.22;5033344;28;20844;-68
2022/10/05 01:46:03;;;;;;;19.83;11.27;;;;;;;13.97;100.00;101596.75;5025344;28;20045;-68
2022/10/05 01:48:47;;;;;;;23.95;11.95;;;;;;;13.93;100.00;101597.03;5042611;28;20035;-68
2022/10/05 01:51:19;;;;;;;21.88;11.85;;;;;;;13.83;100.00;101583.38;5025782;28;20036;-67
2022/10/05 01:54:02;;;;;;;18.50;12.35;;;;;;;13.76;100.00;101581.22;5061760;28;20029;-67
2022/10/05 01:56:33;;;;;;;19.40;10.50;;;;;;;13.70;100.00;101583.31;5043263;28;20060;-68
2022/10/05 01:59:15;;;;;;;19.17;11.10;;;;;;;13.59;100.00;101588.50;5041938;28;20044;-68
2022/10/05 02:01:57;;;;;;;21.73;10.93;;;;;;;13.57;100.00;101586.88;5042364;28;20469;-67
2022/10/05 02:04:40;;;;;;;20.30;10.23;;;;;;;13.54;100.00;101574.53;5050944;28;20111;-67
2022/10/05 02:07:20;;;;;;;19.80;10.18;;;;;;;13.51;100.00;101577.41;5042011;28;20090;-68
2022/10/05 02:09:57;;;;;;;22.52;11.48;;;;;;;13.46;100.00;101575.03;5038033;28;20056;-68
2022/10/05 02:12:26;;;;;;;20.80;12.25;;;;;;;13.51;100.00;101569.38;5054599;28;20041;-68
2022/10/05 02:14:58;;;;;;;23.83;11.25;;;;;;;13.46;100.00;101567.00;5043131;28;20067;-68
2022/10/05 02:17:47;;;;;;;26.08;12.85;;;;;;;13.47;100.00;101565.19;5036261;28;20051;-68
2022/10/05 02:20:22;;;;;;;18.95;10.70;;;;;;;13.41;100.00;101554.84;5038884;28;20029;-68
2022/10/05 02:22:51;;;;;;;20.23;10.65;;;;;;;13.39;100.00;101551.41;5029930;28;20564;-67
2022/10/05 02:25:22;;;;;;;19.20;11.43;;;;;;;13.39;100.00;101546.03;5034469;28;20128;-68
2022/10/05 02:27:59;;;;;;;23.30;11.13;;;;;;;13.33;100.00;101541.06;5058041;28;20101;-68
2022/10/05 02:30:26;;;;;;;20.88;11.75;;;;;;;13.37;100.00;101540.78;5034778;28;20041;-67
2022/10/05 02:32:59;;;;;;;20.33;10.95;;;;;;;13.36;100.00;101541.75;5041829;28;20090;-67
2022/10/05 02:35:25;;;;;;;20.60;10.95;;;;;;;13.34;100.00;101529.41;5031433;28;20040;-67
2022/10/05 02:38:09;;;;;;;22.88;11.05;;;;;;;13.35;100.00;101523.06;5042315;28;20081;-68
2022/10/05 02:40:43;;;;;;;19.23;10.27;;;;;;;13.40;100.00;101529.00;5031866;28;20131;-67
2022/10/05 02:43:38;;;;;;;21.98;11.07;;;;;;;13.35;100.00;101523.94;5032053;28;20537;-68
2022/10/05 02:46:17;;;;;;;20.30;11.52;;;;;;;13.40;100.00;101520.97;5056552;28;20037;-67
2022/10/05 02:49:07;;;;;;;18.00;11.40;;;;;;;13.32;100.00;101516.13;5048239;28;20406;-68
2022/10/05 02:51:49;;;;;;;19.27;11.05;;;;;;;13.28;100.00;101511.03;5033275;28;20048;-69
2022/10/05 02:54:24;;;;;;;21.90;11.35;;;;;;;13.31;100.00;101508.19;5054661;28;20025;-67
2022/10/05 02:57:24;;;;;;;19.15;11.43;;;;;;;13.25;100.00;101497.84;5060942;28;20143;-68
2022/10/05 03:00:03;;;;;;;22.38;12.07;;;;;;;13.30;100.00;101495.72;5035380;28;20586;-68
2022/10/05 03:02:54;;;;;;;21.88;11.38;;;;;;;13.27;100.00;101493.25;5034965;28;20056;-68
2022/10/05 03:05:36;;;;;;;21.55;12.15;;;;;;;13.35;100.00;101485.56;5051816;28;20053;-68
2022/10/05 03:08:18;;;;;;;26.85;12.85;;;;;;;13.21;100.00;101484.66;5041684;28;20143;-69
2022/10/05 03:11:10;;;;;;;20.95;11.68;;;;;;;13.23;100.00;101486.38;5038853;28;20050;-68
2022/10/05 03:14:00;;;;;;;23.50;12.05;;;;;;;13.26;100.00;101486.19;5041728;28;20079;-67
2022/10/05 03:17:08;;;;;;;21.08;10.73;;;;;;;13.26;100.00;101486.19;5056709;28;20060;-67
2022/10/05 03:20:03;;;;;;;28.17;12.52;;;;;;;13.36;100.00;101503.41;5041476;28;20064;-67
2022/10/05 03:22:52;;;;;;;27.00;12.05;;;;;;;13.36;100.00;101495.34;5056279;28;20058;-68
2022/10/05 03:25:31;;;;;;;30.27;13.02;;;;;;;13.36;100.00;101488.19;5040705;28;21157;-68
2022/10/05 03:28:25;;;;;;;24.52;12.35;;;;;;;13.36;100.00;101484.63;5017347;28;20048;-68
2022/10/05 03:31:03;;;;;;;28.08;10.55;;;;;;;13.47;100.00;101495.50;5025424;28;20043;-68
2022/10/05 03:33:55;;;;;;;17.88;11.07;;;;;;;13.56;100.00;101497.59;5034725;28;20148;-68
2022/10/05 03:36:39;;;;;;;25.63;12.57;;;;;;;13.53;100.00;101502.28;5031138;28;20037;-68
2022/10/05 03:39:30;;;;;;;21.40;11.57;;;;;;;13.57;100.00;101504.66;5033196;28;20067;-68
2022/10/05 03:42:09;;;;;;;21.30;11.32;;;;;;;13.59;100.00;101504.56;5035470;28;20060;-68
2022/10/05 03:44:48;;;;;;;22.67;10.95;;;;;;;13.57;100.00;101503.81;5033188;28;20075;-67
2022/10/05 03:47:27;;;;;;;19.48;11.48;;;;;;;13.57;100.00;101493.94;5010045;28;20049;-67
2022/10/05 03:50:32;;;;;;;21.83;11.07;;;;;;;13.58;100.00;101492.13;5031990;28;20067;-68
2022/10/05 03:53:04;;;;;;;19.48;11.45;;;;;;;13.55;100.00;101492.31;5052853;28;20060;-68
2022/10/05 03:55:49;;;;;;;25.10;12.98;;;;;;;13.55;100.00;101503.03;5033877;28;20125;-68
2022/10/05 03:58:56;;;;;;;23.58;12.13;;;;;;;13.50;100.00;101506.00;5041208;28;20044;-68
2022/10/05 04:01:32;;;;;;;22.20;12.38;;;;;;;13.54;100.00;101509.34;5009561;28;20101;-69
2022/10/05 04:04:05;;;;;;;26.58;13.88;;;;;;;13.49;100.00;101501.63;5040088;28;20037;-68
2022/10/05 04:06:39;;;;;;;22.52;13.45;;;;;;;13.52;100.00;101496.06;5040320;28;20109;-67
2022/10/05 04:09:17;;;;;;;20.77;12.73;;;;;;;13.49;100.00;101496.25;5054570;28;20119;-68
2022/10/05 04:12:08;;;;;;;23.33;12.27;;;;;;;13.51;100.00;101496.19;5040980;28;20032;-68
2022/10/05 04:14:45;;;;;;;20.80;13.00;;;;;;;13.51;100.00;101496.19;5058622;28;20044;-68
2022/10/05 04:17:20;;;;;;;29.25;13.60;;;;;;;13.55;100.00;101506.56;5057202;28;20025;-68
2022/10/05 04:19:59;;;;;;;22.95;13.32;;;;;;;13.57;100.00;101506.50;5058115;28;20123;-68
2022/10/05 04:22:40;;;;;;;23.50;14.25;;;;;;;13.58;100.00;101498.34;5038327;28;20366;-68
2022/10/05 04:25:14;;;;;;;22.58;12.77;;;;;;;13.59;100.00;101497.38;5016065;28;20119;-69
2022/10/05 04:28:01;;;;;;;25.35;12.88;;;;;;;13.58;100.00;101501.03;5032699;28;20112;-66
2022/10/05 04:30:30;;;;;;;24.70;12.73;;;;;;;13.68;100.00;101488.75;5016625;28;20052;-68
2022/10/05 04:32:58;;;;;;;18.33;11.32;;;;;;;13.59;100.00;101489.34;5033465;28;20174;-69
2022/10/05 04:35:52;;;;;;;21.52;12.93;;;;;;;13.65;100.00;101485.38;5038872;28;20738;-68
2022/10/05 04:38:55;;;;;;;22.80;12.50;;;;;;;13.64;100.00;101476.50;5042128;28;20195;-67
2022/10/05 04:41:49;;;;;;;29.27;13.95;;;;;;;13.65;100.00;101475.53;5041365;28;20064;-67
2022/10/05 04:44:36;;;;;;;19.45;11.57;;;;;;;13.62;100.00;101470.38;5057782;28;20147;-69
2022/10/05 04:47:45;;;;;;;23.58;11.65;;;;;;;13.63;100.00;101479.28;5062697;28;20040;-69
2022/10/05 04:50:46;;;;;;;25.30;11.68;;;;;;;13.65;100.00;101480.88;4975802;28;20141;-68
2022/10/05 04:53:37;;;;;;;23.77;12.10;;;;;;;13.64;100.00;101471.13;4979494;28;20509;-68
2022/10/05 04:56:19;;;;;;;24.80;11.77;;;;;;;13.59;100.00;101467.91;4979512;28;20141;-69
2022/10/05 04:59:01;;;;;;;20.88;10.90;;;;;;;13.59;100.00;101469.72;4974858;28;20130;-69
2022/10/05 05:02:02;;;;;;;18.65;10.95;;;;;;;13.57;100.00;101464.47;4972350;28;20588;-68
2022/10/05 05:04:45;;;;;;;20.88;11.10;;;;;;;13.56;100.00;101462.75;4973205;28;20042;-74
2022/10/05 05:07:26;;;;;;;20.75;11.45;;;;;;;13.56;100.00;101456.53;4960727;28;20077;-68
2022/10/05 05:10:03;;;;;;;21.17;11.10;;;;;;;13.54;100.00;101461.13;4973263;28;20044;-67
2022/10/05 05:12:56;;;;;;;19.17;10.60;;;;;;;13.50;100.00;101460.47;4970050;28;20062;-69
2022/10/05 05:15:36;;;;;;;23.15;11.10;;;;;;;13.50;100.00;101454.25;4973606;28;20548;-68
2022/10/05 05:18:17;;;;;;;22.73;11.70;;;;;;;13.48;100.00;101467.75;4977724;28;20057;-69
2022/10/05 05:20:50;;;;;;;24.02;11.82;;;;;;;13.46;100.00;101457.16;4977953;28;20104;-68
2022/10/05 05:23:49;;;;;;;23.60;11.18;;;;;;;13.42;100.00;101455.63;4970963;28;20058;-70
2022/10/05 05:26:42;;;;;;;20.42;11.38;;;;;;;13.50;100.00;101464.97;4991391;28;20060;-67
2022/10/05 05:29:17;;;;;;;19.83;11.10;;;;;;;13.42;100.00;101462.81;5057315;28;20123;-67
2022/10/05 05:31:49;;;;;;;20.98;11.15;;;;;;;13.39;100.00;101471.03;5041703;28;20049;-70
2022/10/05 05:34:37;;;;;;;24.35;11.55;;;;;;;13.42;100.00;101463.66;5039451;28;20535;-69
2022/10/05 05:37:12;;;;;;;20.92;11.52;;;;;;;13.42;100.00;101458.31;5042835;28;20542;-69
2022/10/05 05:40:02;;;;;;;18.50;10.80;;;;;;;13.39;100.00;101452.28;5025519;28;20059;-68
2022/10/05 05:42:38;;;;;;;;;;;;;;;13.36;100.00;101450.66;5042893;28;20103;-70
2022/10/05 05:45:22;;;;;;;24.77;11.82;;;;;;;13.40;100.00;101448.63;5038034;28;19924;-68
2022/10/05 05:47:53;;;;;;;16.67;9.50;;;;;;;13.43;100.00;101456.47;5049938;28;20060;-69
2022/10/05 05:50:33;;;;;;;;;;;;;;;13.42;100.00;101450.25;5034183;28;20032;-70
2022/10/05 05:53:03;;;;;;;19.77;10.35;;;;;;;13.43;100.00;101457.34;5021199;28;19943;-69
2022/10/05 05:55:41;;;;;;;19.33;10.75;;;;;;;13.45;100.00;101438.47;5052702;28;20438;-69
2022/10/05 05:58:18;;;;;;;19.70;9.70;;;;;;;13.46;100.00;101443.75;5026339;28;20621;-69
2022/10/05 06:00:56;;;;;;;22.50;11.10;;;;;;;13.48;100.00;101447.16;5036912;28;20037;-69
2022/10/05 06:03:41;;;;;;;18.98;11.15;;;;;;;13.50;100.00;101446.22;5039351;28;20075;-70
2022/10/05 06:06:13;;;;;;;19.50;9.95;;;;;;;13.53;100.00;101446.00;5031287;28;20048;-69
2022/10/05 06:08:48;;;;;;;19.17;9.48;;;;;;;13.54;100.00;101451.25;5057028;28;20068;-69
2022/10/05 06:11:43;;;;;;;17.77;10.00;;;;;;;13.60;100.00;101450.84;5021094;28;20032;-69
2022/10/05 06:14:21;;;;;;;13.38;8.55;;;;;;;13.61;100.00;101439.19;5021113;28;20036;-68
2022/10/05 06:16:57;;;;;;;17.05;10.55;;;;;;;13.65;100.00;101440.69;5052472;28;20050;-69
2022/10/05 06:19:25;;;;;;;28.63;13.20;;;;;;;13.67;100.00;101441.47;5041640;28;20048;-69
2022/10/05 06:22:04;;;;;;;19.85;9.82;;;;;;;13.65;100.00;101456.75;5041779;28;20214;-69
2022/10/05 06:24:39;;;;;;;15.90;8.80;;;;;;;13.68;100.00;101453.03;5041105;28;20044;-70
2022/10/05 06:27:17;;;;;;;26.67;10.35;;;;;;;13.67;100.00;101454.88;5040958;28;20043;-69
2022/10/05 06:29:57;;;;;;;15.75;9.32;;;;;;;13.70;100.00;101454.66;5058221;28;20047;-70
2022/10/05 06:32:32;;;;;;;15.88;9.00;;;;;;;13.74;100.00;101464.19;5058741;28;20033;-69
2022/10/05 06:35:06;;;;;;;17.05;9.25;;;;;;;13.75;100.00;101457.00;5034782;28;20043;-70
2022/10/05 06:38:03;;;;;;;17.25;8.38;;;;;;;13.72;100.00;101460.78;5036536;28;20118;-67
2022/10/05 06:40:42;;;;;;;17.02;9.27;;;;;;;13.76;100.00;101461.44;5030691;28;20033;-68
2022/10/05 06:43:42;;;;;;;15.65;8.57;;;;;;;13.81;100.00;101462.00;5059892;28;20575;-67
2022/10/05 06:46:25;;;;;;;17.35;8.63;;;;;;;13.77;100.00;101467.66;5055308;28;20559;-68
2022/10/05 06:49:27;;;;;;;15.82;8.73;;;;;;;13.80;100.00;101470.13;5032475;28;20045;-67
2022/10/05 06:52:35;;;;;;;20.13;8.65;;;;;;;13.82;100.00;101462.84;4967158;28;20541;-69
2022/10/05 06:55:01;;;;;;;13.38;8.65;;;;;;;13.78;100.00;101464.00;4950441;28;20051;-68
2022/10/05 06:57:29;;;;;;;15.82;8.13;;;;;;;13.83;100.00;101470.78;4958285;28;20186;-68
2022/10/05 07:00:24;;;;;;;12.80;8.00;;;;;;;13.85;100.00;101470.66;4961333;28;21025;-70
2022/10/05 07:03:01;;;;;;;14.50;8.43;;;;;;;13.86;100.00;101464.38;4963307;28;20042;-70
2022/10/05 07:05:49;;;;;;;17.67;9.73;;;;;;;13.85;100.00;101474.19;4963880;28;20065;-69
2022/10/05 07:08:19;;;;;;;16.92;8.40;;;;;;;13.98;100.00;101461.69;4955538;28;20045;-69
2022/10/05 07:11:01;;;;;;;15.30;8.70;;;;;;;14.07;100.00;101462.06;4966450;28;20047;-68
2022/10/05 07:14:01;;;;;;;14.15;8.02;;;;;;;14.12;100.00;101466.13;4967215;28;20548;-70
2022/10/05 07:16:58;;;;;;;13.35;7.60;;;;;;;14.17;100.00;101466.69;4959769;28;20575;-70
2022/10/05 07:19:38;;;;;;;13.93;7.38;;;;;;;14.25;100.00;101460.78;4970631;28;20042;-69
2022/10/05 07:22:24;;;;;;;11.65;7.45;;;;;;;14.35;100.00;101469.91;4971224;28;20674;-70
2022/10/05 07:25:15;;;;;;;15.63;8.13;;;;;;;14.32;100.00;101463.91;4960358;28;20086;-69
2022/10/05 07:27:47;;;;;;;11.15;7.07;;;;;;;14.38;100.00;101471.53;4979739;28;20143;-69
2022/10/05 07:30:14;;;;;;;11.33;7.63;;;;;;;14.39;100.00;101463.34;5042034;28;20564;-69
2022/10/05 07:32:59;;;;;;;16.10;8.20;;;;;;;14.47;100.00;101458.38;5015984;28;20470;-69
2022/10/05 07:38:47;;;;;;;13.73;8.82;;;;;;;14.59;100.00;101459.31;5034513;28;20056;-67
2022/10/05 07:41:23;;;;;;;9.70;6.50;;;;;;;14.56;100.00;101456.88;5040149;28;20038;-69
2022/10/05 07:43:52;;;;;;;14.45;7.65;;;;;;;14.68;100.00;101457.81;5053659;28;20064;-68
2022/10/05 07:46:18;;;;;;;15.90;7.22;;;;;;;14.66;100.00;101454.38;5036458;28;20052;-70
2022/10/05 07:49:11;;;;;;;14.98;6.60;;;;;;;14.75;100.00;101459.94;5054186;28;20225;-70
2022/10/05 07:51:47;;;;;;;17.77;6.85;;;;;;;14.72;100.00;101464.69;5049772;28;20036;-67
2022/10/05 07:54:44;;;;;;;12.23;7.32;;;;;;;14.76;100.00;101463.50;5040531;28;20432;-70
2022/10/05 07:57:47;;;;;;;14.07;7.55;;;;;;;14.77;100.00;101459.84;5052557;28;20060;-68
2022/10/05 08:00:17;;;;;;;12.55;7.10;;;;;;;14.84;100.00;101457.59;5037359;28;20040;-70
2022/10/05 08:02:54;;;;;;;9.73;6.38;;;;;;;14.87;100.00;101455.53;5036700;28;20056;-69
2022/10/05 08:05:34;;;;;;;16.10;6.60;;;;;;;14.88;100.00;101469.84;5058302;28;20036;-70
2022/10/05 08:08:09;;;;;;;13.30;7.75;;;;;;;15.05;100.00;101456.03;5057641;28;20037;-69
2022/10/05 08:10:53;;;;;;;13.57;7.05;;;;;;;15.10;100.00;101467.31;5055931;28;20051;-68
2022/10/05 08:13:43;;;;;;;10.73;6.60;;;;;;;15.16;100.00;101449.88;5048447;28;20430;-68
2022/10/05 08:16:11;;;;;;;9.40;6.60;;;;;;;15.26;100.00;101458.97;5055690;28;20500;-70
2022/10/05 08:18:58;;;;;;;11.93;5.93;;;;;;;15.44;100.00;101462.16;5058017;28;20601;-67
2022/10/05 08:21:35;;;;;;;10.93;6.43;;;;;;;15.58;100.00;101459.31;5033903;28;20113;-69
2022/10/05 08:24:18;;;;;;;10.98;6.22;;;;;;;15.75;100.00;101458.06;5053604;28;20032;-69
2022/10/05 08:26:50;;;;;;;10.50;5.75;;;;;;;15.97;100.00;101454.63;5057846;28;20040;-69
2022/10/05 08:29:25;;;;;;;12.00;6.32;;;;;;;15.96;98.82;101450.19;5056836;28;20045;-70
2022/10/05 08:31:57;;;;;;;9.60;5.75;;;;;;;16.19;98.99;101448.44;5057901;28;20048;-70
2022/10/05 08:34:45;;;;;;;9.48;5.97;;;;;;;16.16;97.80;101454.91;5054384;28;20045;-69
2022/10/05 08:37:24;;;;;;;9.82;5.88;;;;;;;16.48;98.39;101454.25;5033459;28;20040;-69
2022/10/05 08:39:53;;;;;;;8.13;5.72;;;;;;;16.24;98.13;101446.25;5051043;28;20025;-69
2022/10/05 08:42:56;;;;;;;8.23;6.38;;;;;;;16.38;97.39;101442.50;5057577;28;20032;-70
2022/10/05 08:45:52;;;;;;;11.43;6.32;;;;;;;16.42;95.97;101439.44;5053336;28;20093;-69
2022/10/05 08:48:46;;;;;;;13.23;6.88;;;;;;;16.64;95.43;101430.53;5058248;28;20044;-69
2022/10/05 08:51:32;;;;;;;9.73;5.25;;;;;;;16.62;94.33;101429.78;5056274;28;20832;-70
2022/10/05 08:54:16;;;;;;;8.60;5.10;;;;;;;16.67;94.89;101424.06;5055232;28;20488;-70
2022/10/05 08:56:55;;;;;;;12.07;5.55;;;;;;;17.04;94.21;101424.66;5057178;28;20113;-68
2022/10/05 08:59:41;;;;;;;10.88;6.38;;;;;;;17.07;93.96;101419.88;5054503;28;20477;-69
2022/10/05 09:02:29;;;;;;;10.50;5.65;;;;;;;16.90;93.87;101423.06;5050207;28;20036;-69
2022/10/05 09:05:23;;;;;;;14.45;5.88;;;;;;;17.24;92.83;101425.72;5056430;28;20041;-68
2022/10/05 09:08:33;;;;;;;11.63;5.78;;;;;;;16.94;92.62;101426.38;5036047;28;20066;-69
2022/10/05 09:11:02;;;;;;;6.40;4.68;;;;;;;17.43;91.95;101427.75;4990021;28;20057;-67
2022/10/05 09:13:40;;;;;;;9.57;4.57;;;;;;;17.41;93.50;101422.47;4995199;28;20049;-69
2022/10/05 09:16:22;;;;;;;10.50;5.00;;;;;;;17.24;91.86;101423.88;4995482;28;20546;-68
2022/10/05 09:19:21;;;;;;;8.10;4.88;;;;;;;17.42;91.87;101418.81;4996375;28;20076;-70
2022/10/05 09:21:46;;;;;;;10.73;4.95;;;;;;;17.52;90.81;101417.06;4998617;28;20038;-67
2022/10/05 09:24:12;;;;;;;7.30;5.05;;;;;;;17.74;90.00;101426.94;4999680;28;20815;-69
2022/10/05 09:26:59;;;;;;;7.90;4.70;;;;;;;17.51;89.27;101411.78;4998889;28;20045;-70
2022/10/05 09:29:59;;;;;;;10.18;5.25;;;;;;;17.82;89.52;101410.09;4998640;28;20633;-70
2022/10/05 09:32:43;;;;;;;8.35;4.75;;;;;;;17.56;91.14;101410.41;5001673;28;20042;-70
2022/10/05 09:35:49;;;;;;;7.68;4.50;;;;;;;17.98;88.66;101390.78;4991574;28;20060;-68
2022/10/05 09:38:31;;;;;;;7.50;4.88;;;;;;;17.91;89.03;101403.06;4925379;29;20174;-70
2022/10/05 09:41:05;;;;;;;7.78;4.20;;;;;;;18.11;88.44;101399.50;4949231;28;20052;-70
2022/10/05 09:43:49;;;;;;;7.65;5.18;;;;;;;18.01;88.27;101396.75;4980907;28;20062;-70
2022/10/05 09:46:42;;;;;;;10.02;5.05;;;;;;;18.03;87.25;101393.94;4993406;28;20065;-69
2022/10/05 09:49:46;;;;;;;12.77;5.55;;;;;;;18.16;86.89;101397.25;4991563;28;20040;-70
2022/10/05 09:53:19;;;;;;;9.00;4.30;;;;;;;18.26;88.28;101386.53;4963982;28;20399;-69
2022/10/05 09:56:05;;;;;;;10.65;5.05;;;;;;;18.36;87.59;101390.97;4920336;29;20588;-70
2022/10/05 09:58:57;;;;;;;7.57;5.20;;;;;;;18.44;86.87;101386.78;4935259;28;20516;-69
2022/10/05 10:01:25;;;;;;;7.40;5.07;;;;;;;18.62;85.03;101372.50;4902436;29;20082;-70
2022/10/05 10:04:15;;;;;;;9.18;4.82;;;;;;;18.66;85.05;101378.47;4937859;29;20146;-69
2022/10/05 10:07:08;;;;;;;8.88;4.28;;;;;;;18.76;84.30;101378.53;4937262;29;20075;-70
2022/10/05 10:10:05;;;;;;;7.88;4.88;;;;;;;18.63;83.15;101370.66;4936318;29;20836;-69
2022/10/05 10:12:35;;;;;;;10.20;4.97;;;;;;;18.81;83.94;101369.03;4922249;29;20056;-69
2022/10/05 10:15:13;;;;;;;7.80;4.65;;;;;;;19.13;84.05;101366.13;4972543;28;20852;-71
2022/10/05 10:17:50;;;;;;;13.65;4.70;;;;;;;18.97;83.28;101360.38;4977421;28;20078;-69
2022/10/05 10:20:24;;;;;;;7.22;4.38;;;;;;;19.15;81.62;101357.88;4971892;28;20050;-70
2022/10/05 10:23:07;;;;;;;9.73;4.88;;;;;;;19.04;82.40;101353.44;4972748;28;20046;-71
2022/10/05 10:26:10;;;;;;;8.93;4.40;;;;;;;19.38;82.82;101351.22;4986055;28;20067;-70
2022/10/05 10:29:01;;;;;;;9.40;4.50;;;;;;;19.34;80.41;101348.94;5054770;28;20036;-70
2022/10/05 10:31:47;;;;;;;7.88;4.40;;;;;;;19.31;82.27;101341.94;5057080;28;20476;-68
2022/10/05 10:34:59;;;;;;;6.20;4.43;;;;;;;19.29;82.04;101334.97;5054444;28;20028;-69
2022/10/05 10:37:35;;;;;;;7.15;3.75;;;;;;;19.40;82.51;101322.16;5058771;28;20044;-73
2022/10/05 10:40:33;;;;;;;5.70;4.00;;;;;;;19.19;81.96;101326.00;5058999;28;20040;-73
2022/10/05 10:43:07;;;;;;;7.78;3.67;;;;;;;19.18;82.01;101316.16;5057674;28;20041;-73
2022/10/05 10:45:47;;;;;;;6.63;4.13;;;;;;;19.36;81.90;101314.47;5058500;28;20044;-69
2022/10/05 10:48:18;;;;;;;5.18;3.92;;;;;;;19.15;81.24;101315.47;5054366;28;20066;-69
2022/10/05 10:51:05;;;;;;;13.15;4.72;;;;;;;19.08;83.14;101316.19;5051221;28;20493;-69
2022/10/05 10:53:48;;;;;;;9.18;3.55;;;;;;;19.12;81.69;101313.03;5052927;28;20032;-69
2022/10/05 10:56:45;;;;;;;7.40;3.55;;;;;;;19.33;82.24;101312.91;5030935;28;20166;-67
2022/10/05 10:59:41;;;;;;;4.35;3.30;;;;;;;19.41;82.39;101310.31;5057611;28;20039;-66
2022/10/05 11:02:51;;;;;;;7.22;3.83;;;;;;;19.82;80.63;101310.16;5058574;28;20052;-68
2022/10/05 11:05:45;;;;;;;10.65;3.55;;;;;;;19.49;81.38;101308.78;5044823;28;20430;-67
2022/10/05 11:08:41;;;;;;;5.47;2.60;;;;;;;19.31;80.07;101309.47;5053576;28;20060;-70
2022/10/05 11:11:45;;;;;;;4.20;2.88;;;;;;;19.52;81.06;101294.94;5058694;28;20865;-69
2022/10/05 11:14:20;;;;;;;5.72;3.05;;;;;;;19.61;81.04;101299.53;5057502;28;20133;-70
2022/10/05 11:17:00;;;;;;;4.13;2.85;;;;;;;19.76;79.99;101303.50;5058415;28;20039;-70
2022/10/05 11:19:32;;;;;;;9.32;4.05;;;;;;;19.65;80.55;101295.53;5058907;28;20032;-68
2022/10/05 11:22:23;;;;;;;6.22;3.03;;;;;;;19.48;80.94;101280.00;5056874;28;20489;-69
2022/10/05 11:25:05;;;;;;;7.13;2.95;;;;;;;19.71;79.60;101280.56;5059397;28;20036;-69
2022/10/05 11:27:59;;;;;;;8.15;3.22;;;;;;;19.21;78.88;101284.28;5042300;28;20154;-70
2022/10/05 11:30:39;;;;;;;10.52;3.67;;;;;;;19.38;79.45;101285.44;5054570;28;20025;-68
2022/10/05 11:33:32;;;;;;;4.15;3.17;;;;;;;19.28;81.15;101280.03;5043290;28;20098;-70
2022/10/05 11:36:29;;;;;;;7.60;2.95;;;;;;;19.48;80.35;101261.94;5055601;28;20034;-69
2022/10/05 11:39:19;;;;;;;3.67;3.00;;;;;;;19.59;78.80;101261.81;5059784;28;20716;-70
2022/10/05 11:42:08;;;;;;;5.55;3.08;;;;;;;19.26;78.81;101262.22;5059936;28;20055;-69
2022/10/05 11:44:52;;;;;;;9.95;3.42;;;;;;;19.56;78.55;101259.34;5061186;28;20040;-70
2022/10/05 11:47:30;;;;;;;5.68;3.03;;;;;;;19.50;78.91;101257.22;5058148;28;20068;-69
2022/10/05 11:50:05;;;;;;;6.68;2.58;;;;;;;19.57;79.50;101254.78;5061110;28;20051;-68
2022/10/05 11:52:39;;;;;;;4.93;2.70;;;;;;;19.62;78.97;101249.81;5059420;28;20041;-69
2022/10/05 11:55:29;;;;;;;4.18;2.47;;;;;;;19.49;79.43;101242.00;5056011;28;20079;-69
2022/10/05 11:58:14;;;;;;;4.22;2.58;;;;;;;20.04;79.77;101242.16;5059988;28;20074;-69
2022/10/05 12:00:49;;;;;;;6.13;3.03;;;;;;;19.46;77.41;101236.00;5057645;28;20036;-68
2022/10/05 12:03:41;;;;;;;8.07;2.55;;;;;;;19.39;78.10;101246.56;5034576;28;20044;-69
2022/10/05 12:06:24;;;;;;;5.65;3.05;;;;;;;19.29;78.51;101248.44;5056913;28;20082;-70
2022/10/05 12:09:12;;;;;;;5.00;2.60;;;;;;;19.23;79.92;101240.88;5034956;28;20049;-70
2022/10/05 12:12:10;;;;;;;3.53;2.60;;;;;;;19.54;79.11;101236.16;5058299;28;20044;-67
2022/10/05 12:14:43;;;;;;;4.32;2.30;;;;;;;19.44;79.96;101229.91;5054044;28;20064;-68
2022/10/05 12:17:41;;;;;;;4.65;2.28;;;;;;;19.52;79.55;101225.47;5056527;28;20035;-66
2022/10/05 12:20:27;;;;;;;3.70;2.30;;;;;;;19.87;79.61;101214.00;5059166;28;20037;-69
2022/10/05 12:22:57;;;;;;;4.95;2.53;;;;;;;19.67;78.47;101221.31;5058573;28;20101;-70
2022/10/05 12:25:34;;;;;;;4.88;2.40;;;;;;;19.92;78.64;101210.84;5060255;28;20101;-71